createdAt,value
2023-03-22T00:04:26.633Z,75.28
2023-03-22T00:09:28.120Z,75.42
2023-03-22T00:14:29.858Z,75.73
2023-03-22T00:19:34.016Z,75.44
2023-03-22T00:24:35.566Z,75.16
2023-03-22T00:29:37.313Z,75.19
2023-03-22T00:34:38.908Z,74.99
2023-03-22T00:39:40.425Z,74.95
2023-03-22T00:44:41.920Z,75.74
2023-03-22T00:49:43.515Z,76.07
2023-03-22T00:54:45.254Z,75.80
2023-03-22T00:59:46.878Z,75.90
2023-03-22T01:04:49.931Z,76.74
2023-03-22T01:09:51.934Z,76.71
2023-03-22T01:14:53.448Z,77.19
2023-03-22T01:19:55.034Z,77.32
2023-03-22T01:24:56.523Z,77.57
2023-03-22T01:29:58.069Z,77.43
2023-03-22T01:34:59.779Z,77.15
2023-03-22T01:40:01.285Z,76.70
2023-03-22T01:45:14.818Z,76.75
2023-03-22T01:50:17.858Z,76.81
2023-03-22T01:55:22.897Z,76.34
2023-03-22T02:00:24.445Z,76.09
2023-03-22T02:05:26.505Z,78.16
2023-03-22T02:10:28.731Z,79.25
2023-03-22T02:15:43.583Z,78.28
2023-03-22T02:21:22.585Z,77.85
2023-03-22T02:26:30.495Z,77.77
2023-03-22T02:31:52.830Z,77.49
2023-03-22T02:37:21.065Z,77.66
2023-03-22T02:42:27.406Z,77.97
2023-03-22T02:47:44.794Z,77.60
2023-03-22T02:52:54.075Z,77.96
2023-03-22T02:58:03.211Z,78.78
2023-03-22T03:03:12.680Z,78.05
2023-03-22T03:08:17.327Z,78.18
2023-03-22T03:13:19.439Z,78.93
2023-03-22T03:18:32.237Z,78.80
2023-03-22T03:23:52.114Z,78.52
2023-03-22T03:29:02.127Z,79.03
2023-03-22T03:34:06.313Z,79.44
2023-03-22T03:39:12.240Z,79.38
2023-03-22T03:44:15.449Z,79.40
2023-03-22T03:49:18.047Z,79.43
2023-03-22T03:54:21.053Z,79.82
2023-03-22T03:59:22.615Z,79.75
2023-03-22T04:04:27.715Z,79.90
2023-03-22T04:09:32.423Z,80.34
2023-03-22T04:14:33.938Z,80.72
2023-03-22T04:19:35.430Z,80.45
2023-03-22T04:24:37.915Z,80.68
2023-03-22T04:29:39.391Z,80.01
2023-03-22T04:34:40.924Z,80.45
2023-03-22T04:39:43.134Z,80.87
2023-03-22T04:44:44.678Z,80.74
2023-03-22T04:49:46.169Z,81.64
2023-03-22T04:54:47.686Z,80.69
2023-03-22T04:59:49.174Z,80.09
2023-03-22T05:04:51.065Z,80.32
2023-03-22T05:09:52.590Z,80.14
2023-03-22T05:14:54.103Z,79.96
2023-03-22T05:19:55.662Z,80.39
2023-03-22T05:24:57.213Z,80.65
2023-03-22T05:29:58.706Z,80.12
2023-03-22T05:35:04.785Z,80.62
2023-03-22T05:40:09.981Z,80.66
2023-03-22T05:45:11.909Z,80.86
2023-03-22T05:50:17.353Z,80.49
2023-03-22T05:55:19.641Z,80.55
2023-03-22T06:00:27.760Z,79.97
2023-03-22T06:05:35.988Z,79.88
2023-03-22T06:10:37.606Z,80.02
2023-03-22T06:15:39.218Z,79.74
2023-03-22T06:20:41.207Z,79.55
2023-03-22T06:25:43.660Z,79.28
2023-03-22T06:30:45.377Z,79.63
2023-03-22T06:35:47.006Z,79.41
2023-03-22T06:40:48.481Z,79.20
2023-03-22T06:45:50.033Z,79.45
2023-03-22T06:50:51.601Z,79.52
2023-03-22T06:55:55.294Z,79.75
2023-03-22T07:00:57.308Z,79.57
2023-03-22T07:06:04.239Z,80.69
2023-03-22T07:11:06.833Z,80.60
2023-03-22T07:16:09.896Z,80.11
2023-03-22T07:21:11.588Z,80.04
2023-03-22T07:26:13.529Z,79.54
2023-03-22T07:31:15.365Z,79.49
2023-03-22T07:36:17.047Z,78.98
2023-03-22T07:41:18.741Z,79.07
2023-03-22T07:46:20.308Z,79.00
2023-03-22T07:51:21.872Z,78.43
2023-03-22T07:56:23.392Z,78.64
2023-03-22T08:01:25.714Z,78.41
2023-03-22T08:06:27.227Z,78.51
2023-03-22T08:11:29.088Z,78.45
2023-03-22T08:16:31.181Z,78.14
2023-03-22T08:21:32.866Z,78.19
2023-03-22T08:26:34.392Z,78.13
2023-03-22T08:31:35.889Z,77.76
2023-03-22T08:36:38.192Z,77.93
2023-03-22T08:41:40.321Z,77.73
2023-03-22T08:46:41.864Z,77.55
2023-03-22T08:51:43.415Z,77.20
2023-03-22T08:56:44.897Z,75.89
2023-03-22T09:01:46.522Z,74.95
2023-03-22T09:06:48.239Z,74.63
2023-03-22T09:11:49.745Z,73.50
2023-03-22T09:16:51.860Z,72.22
2023-03-22T09:21:53.781Z,71.83
2023-03-22T09:26:55.457Z,71.60
2023-03-22T09:31:57.166Z,70.06
2023-03-22T09:37:02.375Z,70.22
2023-03-22T09:42:07.702Z,69.38
2023-03-22T09:47:17.889Z,69.62
2023-03-22T09:52:19.585Z,70.00
2023-03-22T09:57:35.268Z,70.26
2023-03-22T10:02:43.007Z,69.32
2023-03-22T10:08:03.394Z,69.07
2023-03-22T10:13:29.307Z,68.39
2023-03-22T10:18:38.996Z,68.13
2023-03-22T10:23:46.697Z,68.05
2023-03-22T10:29:00.807Z,66.55
2023-03-22T10:34:14.239Z,66.46
2023-03-22T10:39:40.057Z,66.72
2023-03-22T10:44:53.664Z,66.11
2023-03-22T10:49:57.203Z,65.92
2023-03-22T10:55:03.729Z,64.19
2023-03-22T11:00:12.606Z,65.15
2023-03-22T11:05:26.705Z,61.95
2023-03-22T11:10:32.978Z,59.62
2023-03-22T11:15:38.884Z,59.40
2023-03-22T11:20:42.420Z,59.16
2023-03-22T11:25:49.957Z,59.53
2023-03-22T11:31:19.336Z,60.04
2023-03-22T11:36:20.901Z,59.92
2023-03-22T11:41:27.926Z,60.45
2023-03-22T11:46:30.911Z,60.50
2023-03-22T11:51:36.202Z,61.17
2023-03-22T11:56:42.759Z,60.04
2023-03-22T12:02:11.464Z,60.89
2023-03-22T12:07:22.174Z,60.60
2023-03-22T12:12:34.982Z,60.37
2023-03-22T12:17:54.924Z,60.88
2023-03-22T12:22:56.992Z,59.76
2023-03-22T12:28:03.989Z,59.95
2023-03-22T12:33:12.236Z,59.08
2023-03-22T12:38:22.702Z,58.32
2023-03-22T12:43:55.385Z,58.25
2023-03-22T12:49:06.423Z,57.73
2023-03-22T12:54:12.847Z,57.41
2023-03-22T12:59:28.762Z,56.72
2023-03-22T13:04:36.375Z,56.81
2023-03-22T13:09:42.627Z,57.51
2023-03-22T13:14:50.382Z,57.72
2023-03-22T13:20:25.739Z,57.20
2023-03-22T13:25:39.023Z,56.74
2023-03-22T13:30:52.675Z,57.07
2023-03-22T13:36:25.288Z,56.35
2023-03-22T13:41:28.327Z,57.37
2023-03-22T13:46:46.811Z,57.42
2023-03-22T13:51:49.618Z,57.20
2023-03-22T13:57:01.020Z,56.74
2023-03-22T14:02:30.923Z,57.36
2023-03-22T14:07:44.936Z,57.04
2023-03-22T14:12:58.138Z,57.56
2023-03-22T14:18:04.372Z,58.00
